sensor_id;sensor_type;location;lat;lon;timestamp;temperature;humidity
17619;DHT22;8928;51.678;6.074;2023-08-07T00:01:46;13.10;99.90
17619;DHT22;8928;51.678;6.074;2023-08-07T00:04:33;13.10;99.90
17619;DHT22;8928;51.678;6.074;2023-08-07T00:07:20;13.10;99.90
17619;DHT22;8928;51.678;6.074;2023-08-07T00:10:08;13.10;99.90
17619;DHT22;8928;51.678;6.074;2023-08-07T00:12:55;13.00;99.90
17619;DHT22;8928;51.678;6.074;2023-08-07T00:15:42;13.00;99.90
17619;DHT22;8928;51.678;6.074;2023-08-07T00:18:31;13.00;99.90
17619;DHT22;8928;51.678;6.074;2023-08-07T00:21:18;13.00;99.90
17619;DHT22;8928;51.678;6.074;2023-08-07T00:24:05;13.00;99.90
17619;DHT22;8928;51.678;6.074;2023-08-07T00:26:52;13.00;99.90
17619;DHT22;8928;51.678;6.074;2023-08-07T00:29:39;13.10;99.90
17619;DHT22;8928;51.678;6.074;2023-08-07T00:32:26;13.10;99.90
17619;DHT22;8928;51.678;6.074;2023-08-07T00:35:14;13.10;99.90
17619;DHT22;8928;51.678;6.074;2023-08-07T00:38:01;13.10;99.90
17619;DHT22;8928;51.678;6.074;2023-08-07T00:40:49;13.00;99.90
17619;DHT22;8928;51.678;6.074;2023-08-07T00:43:36;13.00;99.90
17619;DHT22;8928;51.678;6.074;2023-08-07T00:46:23;13.00;99.90
17619;DHT22;8928;51.678;6.074;2023-08-07T00:49:12;13.00;99.90
17619;DHT22;8928;51.678;6.074;2023-08-07T00:52:00;13.00;99.90
17619;DHT22;8928;51.678;6.074;2023-08-07T00:54:47;13.00;99.90
17619;DHT22;8928;51.678;6.074;2023-08-07T00:57:34;13.00;99.90
17619;DHT22;8928;51.678;6.074;2023-08-07T01:00:22;13.00;99.90
17619;DHT22;8928;51.678;6.074;2023-08-07T01:03:11;13.00;99.90
17619;DHT22;8928;51.678;6.074;2023-08-07T01:05:59;13.00;99.90
17619;DHT22;8928;51.678;6.074;2023-08-07T01:08:47;13.00;99.90
17619;DHT22;8928;51.678;6.074;2023-08-07T01:11:39;13.00;99.90
17619;DHT22;8928;51.678;6.074;2023-08-07T01:14:37;13.00;99.90
17619;DHT22;8928;51.678;6.074;2023-08-07T01:17:28;13.00;99.90
17619;DHT22;8928;51.678;6.074;2023-08-07T01:20:15;13.00;99.90
17619;DHT22;8928;51.678;6.074;2023-08-07T01:23:04;13.00;99.90
17619;DHT22;8928;51.678;6.074;2023-08-07T01:25:51;13.00;99.90
17619;DHT22;8928;51.678;6.074;2023-08-07T01:28:42;13.00;99.90
17619;DHT22;8928;51.678;6.074;2023-08-07T01:31:33;13.00;99.90
17619;DHT22;8928;51.678;6.074;2023-08-07T01:34:22;12.90;99.90
17619;DHT22;8928;51.678;6.074;2023-08-07T01:37:12;13.00;99.90
17619;DHT22;8928;51.678;6.074;2023-08-07T01:40:02;13.00;99.90
17619;DHT22;8928;51.678;6.074;2023-08-07T01:42:50;12.90;99.90
17619;DHT22;8928;51.678;6.074;2023-08-07T01:45:37;12.90;99.90
17619;DHT22;8928;51.678;6.074;2023-08-07T01:48:24;12.90;99.90
17619;DHT22;8928;51.678;6.074;2023-08-07T01:51:11;12.90;99.90
17619;DHT22;8928;51.678;6.074;2023-08-07T01:53:58;13.00;99.90
17619;DHT22;8928;51.678;6.074;2023-08-07T01:56:47;12.90;99.90
17619;DHT22;8928;51.678;6.074;2023-08-07T01:59:34;13.00;99.90
17619;DHT22;8928;51.678;6.074;2023-08-07T02:02:21;13.00;99.90
17619;DHT22;8928;51.678;6.074;2023-08-07T02:05:09;13.00;99.90
17619;DHT22;8928;51.678;6.074;2023-08-07T02:07:56;12.90;99.90
17619;DHT22;8928;51.678;6.074;2023-08-07T02:10:43;12.90;99.90
17619;DHT22;8928;51.678;6.074;2023-08-07T02:13:32;12.80;99.90
17619;DHT22;8928;51.678;6.074;2023-08-07T02:16:19;12.80;99.90
17619;DHT22;8928;51.678;6.074;2023-08-07T02:19:06;12.80;99.90
17619;DHT22;8928;51.678;6.074;2023-08-07T02:21:53;12.80;99.90
17619;DHT22;8928;51.678;6.074;2023-08-07T02:24:40;12.70;99.90
17619;DHT22;8928;51.678;6.074;2023-08-07T02:27:28;12.70;99.90
17619;DHT22;8928;51.678;6.074;2023-08-07T02:30:16;12.70;99.90
17619;DHT22;8928;51.678;6.074;2023-08-07T02:33:03;12.70;99.90
17619;DHT22;8928;51.678;6.074;2023-08-07T02:35:50;12.70;99.90
17619;DHT22;8928;51.678;6.074;2023-08-07T02:38:37;12.70;99.90
17619;DHT22;8928;51.678;6.074;2023-08-07T02:41:24;12.70;99.90
17619;DHT22;8928;51.678;6.074;2023-08-07T02:44:11;12.70;99.90
17619;DHT22;8928;51.678;6.074;2023-08-07T02:47:00;12.70;99.90
17619;DHT22;8928;51.678;6.074;2023-08-07T02:49:47;12.70;99.90
17619;DHT22;8928;51.678;6.074;2023-08-07T02:52:34;12.70;99.90
17619;DHT22;8928;51.678;6.074;2023-08-07T02:55:21;12.70;99.90
17619;DHT22;8928;51.678;6.074;2023-08-07T02:58:08;12.60;99.90
17619;DHT22;8928;51.678;6.074;2023-08-07T03:00:55;12.60;99.90
17619;DHT22;8928;51.678;6.074;2023-08-07T03:03:43;12.60;99.90
17619;DHT22;8928;51.678;6.074;2023-08-07T03:06:30;12.60;99.90
17619;DHT22;8928;51.678;6.074;2023-08-07T03:09:17;12.60;99.90
17619;DHT22;8928;51.678;6.074;2023-08-07T03:12:05;12.60;99.90
17619;DHT22;8928;51.678;6.074;2023-08-07T03:14:52;12.70;99.90
17619;DHT22;8928;51.678;6.074;2023-08-07T03:17:39;12.60;99.90
17619;DHT22;8928;51.678;6.074;2023-08-07T03:20:28;12.70;99.90
17619;DHT22;8928;51.678;6.074;2023-08-07T03:23:15;12.70;99.90
17619;DHT22;8928;51.678;6.074;2023-08-07T03:26:03;12.70;99.90
17619;DHT22;8928;51.678;6.074;2023-08-07T03:28:50;12.70;99.90
17619;DHT22;8928;51.678;6.074;2023-08-07T03:31:37;12.70;99.90
17619;DHT22;8928;51.678;6.074;2023-08-07T03:34:24;12.70;99.90
17619;DHT22;8928;51.678;6.074;2023-08-07T03:37:12;12.70;99.90
17619;DHT22;8928;51.678;6.074;2023-08-07T03:39:59;12.70;99.90
17619;DHT22;8928;51.678;6.074;2023-08-07T03:42:46;12.70;99.90
17619;DHT22;8928;51.678;6.074;2023-08-07T03:45:33;12.70;99.90
17619;DHT22;8928;51.678;6.074;2023-08-07T03:48:20;12.70;99.90
17619;DHT22;8928;51.678;6.074;2023-08-07T03:51:08;12.70;99.90
17619;DHT22;8928;51.678;6.074;2023-08-07T03:53:56;12.70;99.90
17619;DHT22;8928;51.678;6.074;2023-08-07T03:56:43;12.70;99.90
17619;DHT22;8928;51.678;6.074;2023-08-07T03:59:30;12.70;99.90
17619;DHT22;8928;51.678;6.074;2023-08-07T04:02:17;12.70;99.90
17619;DHT22;8928;51.678;6.074;2023-08-07T04:05:04;12.70;99.90
17619;DHT22;8928;51.678;6.074;2023-08-07T04:07:52;12.70;99.90
17619;DHT22;8928;51.678;6.074;2023-08-07T04:10:40;12.70;99.90
17619;DHT22;8928;51.678;6.074;2023-08-07T04:13:27;12.70;99.90
17619;DHT22;8928;51.678;6.074;2023-08-07T04:16:14;12.70;99.90
17619;DHT22;8928;51.678;6.074;2023-08-07T04:19:02;12.70;99.90
17619;DHT22;8928;51.678;6.074;2023-08-07T04:21:49;12.80;99.90
17619;DHT22;8928;51.678;6.074;2023-08-07T04:24:36;12.70;99.90
17619;DHT22;8928;51.678;6.074;2023-08-07T04:27:25;12.70;99.90
17619;DHT22;8928;51.678;6.074;2023-08-07T04:30:12;12.70;99.90
17619;DHT22;8928;51.678;6.074;2023-08-07T04:32:59;12.70;99.90
17619;DHT22;8928;51.678;6.074;2023-08-07T04:35:46;12.70;99.90
17619;DHT22;8928;51.678;6.074;2023-08-07T04:38:33;12.70;99.90
17619;DHT22;8928;51.678;6.074;2023-08-07T04:41:21;12.70;99.90
17619;DHT22;8928;51.678;6.074;2023-08-07T04:44:09;12.70;99.90
17619;DHT22;8928;51.678;6.074;2023-08-07T04:46:56;12.70;99.90
17619;DHT22;8928;51.678;6.074;2023-08-07T04:49:43;12.70;99.90
17619;DHT22;8928;51.678;6.074;2023-08-07T04:52:30;12.70;99.90
17619;DHT22;8928;51.678;6.074;2023-08-07T04:55:17;12.70;99.90
17619;DHT22;8928;51.678;6.074;2023-08-07T04:58:04;12.70;99.90
17619;DHT22;8928;51.678;6.074;2023-08-07T05:00:56;12.70;99.90
17619;DHT22;8928;51.678;6.074;2023-08-07T05:03:43;12.70;99.90
17619;DHT22;8928;51.678;6.074;2023-08-07T05:06:30;12.70;99.90
17619;DHT22;8928;51.678;6.074;2023-08-07T05:09:17;12.70;99.90
17619;DHT22;8928;51.678;6.074;2023-08-07T05:12:05;12.70;99.90
17619;DHT22;8928;51.678;6.074;2023-08-07T05:14:53;12.80;99.90
17619;DHT22;8928;51.678;6.074;2023-08-07T05:17:41;12.80;99.90
17619;DHT22;8928;51.678;6.074;2023-08-07T05:20:28;12.80;99.90
17619;DHT22;8928;51.678;6.074;2023-08-07T05:23:15;12.90;99.90
17619;DHT22;8928;51.678;6.074;2023-08-07T05:26:02;12.90;99.90
17619;DHT22;8928;51.678;6.074;2023-08-07T05:28:49;12.90;99.90
17619;DHT22;8928;51.678;6.074;2023-08-07T05:31:36;12.90;99.90
17619;DHT22;8928;51.678;6.074;2023-08-07T05:34:25;12.90;99.90
17619;DHT22;8928;51.678;6.074;2023-08-07T05:37:12;12.90;99.90
17619;DHT22;8928;51.678;6.074;2023-08-07T05:39:59;12.90;99.90
17619;DHT22;8928;51.678;6.074;2023-08-07T05:42:46;12.90;99.90
17619;DHT22;8928;51.678;6.074;2023-08-07T05:45:33;13.00;99.90
17619;DHT22;8928;51.678;6.074;2023-08-07T05:48:20;13.00;99.90
17619;DHT22;8928;51.678;6.074;2023-08-07T05:51:08;13.00;99.90
17619;DHT22;8928;51.678;6.074;2023-08-07T05:53:55;13.10;99.90
17619;DHT22;8928;51.678;6.074;2023-08-07T05:56:43;13.10;99.90
17619;DHT22;8928;51.678;6.074;2023-08-07T05:59:30;13.10;99.90
17619;DHT22;8928;51.678;6.074;2023-08-07T06:02:17;13.10;99.90
17619;DHT22;8928;51.678;6.074;2023-08-07T06:05:05;13.20;99.90
17619;DHT22;8928;51.678;6.074;2023-08-07T06:07:54;13.30;99.90
17619;DHT22;8928;51.678;6.074;2023-08-07T06:10:41;13.30;99.90
17619;DHT22;8928;51.678;6.074;2023-08-07T06:13:28;13.30;99.90
17619;DHT22;8928;51.678;6.074;2023-08-07T06:16:15;13.30;99.90
17619;DHT22;8928;51.678;6.074;2023-08-07T06:19:03;13.30;99.90
17619;DHT22;8928;51.678;6.074;2023-08-07T06:21:50;13.30;99.90
17619;DHT22;8928;51.678;6.074;2023-08-07T06:24:38;13.30;99.90
17619;DHT22;8928;51.678;6.074;2023-08-07T06:27:25;13.30;99.90
17619;DHT22;8928;51.678;6.074;2023-08-07T06:30:12;13.40;99.90
17619;DHT22;8928;51.678;6.074;2023-08-07T06:33:00;13.40;99.90
17619;DHT22;8928;51.678;6.074;2023-08-07T06:35:47;13.40;99.90
17619;DHT22;8928;51.678;6.074;2023-08-07T06:38:34;13.40;99.90
17619;DHT22;8928;51.678;6.074;2023-08-07T06:41:23;13.40;99.90
17619;DHT22;8928;51.678;6.074;2023-08-07T06:44:10;13.30;99.90
17619;DHT22;8928;51.678;6.074;2023-08-07T06:46:57;13.40;99.90
17619;DHT22;8928;51.678;6.074;2023-08-07T06:49:44;13.30;99.90
17619;DHT22;8928;51.678;6.074;2023-08-07T06:52:31;13.30;99.90
17619;DHT22;8928;51.678;6.074;2023-08-07T06:55:18;13.30;99.90
17619;DHT22;8928;51.678;6.074;2023-08-07T06:58:07;13.30;99.90
17619;DHT22;8928;51.678;6.074;2023-08-07T07:00:54;13.40;99.90
17619;DHT22;8928;51.678;6.074;2023-08-07T07:03:41;13.50;99.90
17619;DHT22;8928;51.678;6.074;2023-08-07T07:06:29;13.60;99.90
17619;DHT22;8928;51.678;6.074;2023-08-07T07:09:16;13.60;99.90
17619;DHT22;8928;51.678;6.074;2023-08-07T07:12:04;13.70;99.90
17619;DHT22;8928;51.678;6.074;2023-08-07T07:14:53;13.80;99.90
17619;DHT22;8928;51.678;6.074;2023-08-07T07:17:40;13.90;99.90
17619;DHT22;8928;51.678;6.074;2023-08-07T07:20:27;13.90;99.90
17619;DHT22;8928;51.678;6.074;2023-08-07T07:23:14;13.90;99.90
17619;DHT22;8928;51.678;6.074;2023-08-07T07:26:01;13.90;99.90
17619;DHT22;8928;51.678;6.074;2023-08-07T07:28:48;13.90;99.90
17619;DHT22;8928;51.678;6.074;2023-08-07T07:31:38;13.90;99.90
17619;DHT22;8928;51.678;6.074;2023-08-07T07:34:25;13.90;99.90
17619;DHT22;8928;51.678;6.074;2023-08-07T07:37:13;13.90;99.90
17619;DHT22;8928;51.678;6.074;2023-08-07T07:40:03;14.00;99.90
17619;DHT22;8928;51.678;6.074;2023-08-07T07:42:50;14.10;99.90
17619;DHT22;8928;51.678;6.074;2023-08-07T07:45:37;14.10;99.90
17619;DHT22;8928;51.678;6.074;2023-08-07T07:48:25;14.30;99.90
17619;DHT22;8928;51.678;6.074;2023-08-07T07:51:12;14.40;99.90
17619;DHT22;8928;51.678;6.074;2023-08-07T07:53:59;14.60;99.90
17619;DHT22;8928;51.678;6.074;2023-08-07T07:56:46;14.70;99.90
17619;DHT22;8928;51.678;6.074;2023-08-07T07:59:33;14.90;99.90
17619;DHT22;8928;51.678;6.074;2023-08-07T08:02:21;14.90;99.90
17619;DHT22;8928;51.678;6.074;2023-08-07T08:05:11;15.00;99.90
17619;DHT22;8928;51.678;6.074;2023-08-07T08:07:58;14.90;99.90
17619;DHT22;8928;51.678;6.074;2023-08-07T08:10:46;14.80;99.90
17619;DHT22;8928;51.678;6.074;2023-08-07T08:13:33;14.70;99.90
17619;DHT22;8928;51.678;6.074;2023-08-07T08:16:24;15.00;99.90
17619;DHT22;8928;51.678;6.074;2023-08-07T08:19:11;15.70;99.90
17619;DHT22;8928;51.678;6.074;2023-08-07T08:22:01;16.10;99.90
17619;DHT22;8928;51.678;6.074;2023-08-07T08:24:48;15.90;99.90
17619;DHT22;8928;51.678;6.074;2023-08-07T08:27:35;15.30;99.90
17619;DHT22;8928;51.678;6.074;2023-08-07T08:30:22;14.90;99.90
17619;DHT22;8928;51.678;6.074;2023-08-07T08:33:09;14.50;99.90
17619;DHT22;8928;51.678;6.074;2023-08-07T08:35:58;14.20;99.90
17619;DHT22;8928;51.678;6.074;2023-08-07T08:38:46;14.00;99.90
17619;DHT22;8928;51.678;6.074;2023-08-07T08:41:34;13.90;99.90
17619;DHT22;8928;51.678;6.074;2023-08-07T08:44:22;13.90;99.90
17619;DHT22;8928;51.678;6.074;2023-08-07T08:47:10;13.80;99.90
17619;DHT22;8928;51.678;6.074;2023-08-07T08:50:01;13.90;99.90
17619;DHT22;8928;51.678;6.074;2023-08-07T08:52:51;14.00;99.90
17619;DHT22;8928;51.678;6.074;2023-08-07T08:55:41;14.00;99.90
17619;DHT22;8928;51.678;6.074;2023-08-07T08:58:32;14.20;99.90
17619;DHT22;8928;51.678;6.074;2023-08-07T09:01:20;14.60;99.90
17619;DHT22;8928;51.678;6.074;2023-08-07T09:04:08;14.80;99.90
17619;DHT22;8928;51.678;6.074;2023-08-07T09:06:56;14.90;99.90
17619;DHT22;8928;51.678;6.074;2023-08-07T09:09:43;15.10;99.90
17619;DHT22;8928;51.678;6.074;2023-08-07T09:12:34;15.50;99.90
17619;DHT22;8928;51.678;6.074;2023-08-07T09:15:25;15.50;99.90
17619;DHT22;8928;51.678;6.074;2023-08-07T09:18:12;15.70;99.90
17619;DHT22;8928;51.678;6.074;2023-08-07T09:21:00;15.90;99.90
17619;DHT22;8928;51.678;6.074;2023-08-07T09:23:47;16.20;99.90
17619;DHT22;8928;51.678;6.074;2023-08-07T09:26:34;16.50;99.90
17619;DHT22;8928;51.678;6.074;2023-08-07T09:29:22;16.40;99.90
17619;DHT22;8928;51.678;6.074;2023-08-07T09:32:12;16.70;99.90
17619;DHT22;8928;51.678;6.074;2023-08-07T09:35:02;17.00;99.90
17619;DHT22;8928;51.678;6.074;2023-08-07T09:37:50;16.80;99.90
17619;DHT22;8928;51.678;6.074;2023-08-07T09:40:37;16.60;99.90
17619;DHT22;8928;51.678;6.074;2023-08-07T09:43:24;16.50;99.90
17619;DHT22;8928;51.678;6.074;2023-08-07T09:46:13;16.20;99.90
17619;DHT22;8928;51.678;6.074;2023-08-07T09:49:00;16.10;99.90
17619;DHT22;8928;51.678;6.074;2023-08-07T09:51:48;16.20;99.90
17619;DHT22;8928;51.678;6.074;2023-08-07T09:54:37;16.40;99.90
17619;DHT22;8928;51.678;6.074;2023-08-07T09:57:24;16.60;99.90
17619;DHT22;8928;51.678;6.074;2023-08-07T10:00:12;16.90;99.90
17619;DHT22;8928;51.678;6.074;2023-08-07T10:03:02;17.20;99.90
17619;DHT22;8928;51.678;6.074;2023-08-07T10:05:50;17.30;99.90
17619;DHT22;8928;51.678;6.074;2023-08-07T10:08:38;17.60;99.90
17619;DHT22;8928;51.678;6.074;2023-08-07T10:11:26;18.10;99.90
17619;DHT22;8928;51.678;6.074;2023-08-07T10:14:14;18.30;99.90
17619;DHT22;8928;51.678;6.074;2023-08-07T10:17:02;18.00;99.90
17619;DHT22;8928;51.678;6.074;2023-08-07T10:19:51;17.40;99.90
17619;DHT22;8928;51.678;6.074;2023-08-07T10:22:39;16.90;99.90
17619;DHT22;8928;51.678;6.074;2023-08-07T10:25:27;16.70;99.90
17619;DHT22;8928;51.678;6.074;2023-08-07T10:28:17;16.80;99.90
17619;DHT22;8928;51.678;6.074;2023-08-07T10:31:06;17.00;99.90
17619;DHT22;8928;51.678;6.074;2023-08-07T10:33:53;17.50;99.90
17619;DHT22;8928;51.678;6.074;2023-08-07T10:36:42;17.40;99.90
17619;DHT22;8928;51.678;6.074;2023-08-07T10:39:29;17.80;99.90
17619;DHT22;8928;51.678;6.074;2023-08-07T10:42:16;17.80;99.90
17619;DHT22;8928;51.678;6.074;2023-08-07T10:45:05;18.10;99.90
17619;DHT22;8928;51.678;6.074;2023-08-07T10:48:02;18.30;99.90
17619;DHT22;8928;51.678;6.074;2023-08-07T10:50:50;18.00;99.90
17619;DHT22;8928;51.678;6.074;2023-08-07T10:53:42;17.60;99.90
17619;DHT22;8928;51.678;6.074;2023-08-07T10:56:32;17.50;99.90
17619;DHT22;8928;51.678;6.074;2023-08-07T10:59:19;17.70;99.90
17619;DHT22;8928;51.678;6.074;2023-08-07T11:02:08;18.10;99.90
17619;DHT22;8928;51.678;6.074;2023-08-07T11:04:58;18.50;99.90
17619;DHT22;8928;51.678;6.074;2023-08-07T11:07:45;18.80;99.90
17619;DHT22;8928;51.678;6.074;2023-08-07T11:10:34;18.90;99.90
17619;DHT22;8928;51.678;6.074;2023-08-07T11:13:21;18.70;99.90
17619;DHT22;8928;51.678;6.074;2023-08-07T11:16:08;18.40;99.90
17619;DHT22;8928;51.678;6.074;2023-08-07T11:18:55;18.30;99.90
17619;DHT22;8928;51.678;6.074;2023-08-07T11:21:42;18.30;99.90
17619;DHT22;8928;51.678;6.074;2023-08-07T11:24:30;18.30;99.90
17619;DHT22;8928;51.678;6.074;2023-08-07T11:27:21;18.20;99.90
17619;DHT22;8928;51.678;6.074;2023-08-07T11:30:11;18.00;99.90
17619;DHT22;8928;51.678;6.074;2023-08-07T11:32:59;17.70;99.90
17619;DHT22;8928;51.678;6.074;2023-08-07T11:35:46;17.40;99.90
17619;DHT22;8928;51.678;6.074;2023-08-07T11:38:36;17.10;99.90
17619;DHT22;8928;51.678;6.074;2023-08-07T11:41:23;17.00;99.90
17619;DHT22;8928;51.678;6.074;2023-08-07T11:44:11;16.80;99.90
17619;DHT22;8928;51.678;6.074;2023-08-07T11:46:59;16.70;99.90
17619;DHT22;8928;51.678;6.074;2023-08-07T11:49:47;16.90;99.90
17619;DHT22;8928;51.678;6.074;2023-08-07T11:52:34;17.40;99.90
17619;DHT22;8928;51.678;6.074;2023-08-07T11:55:23;17.60;99.90
17619;DHT22;8928;51.678;6.074;2023-08-07T11:58:11;18.00;99.90
17619;DHT22;8928;51.678;6.074;2023-08-07T12:01:03;18.50;99.90
17619;DHT22;8928;51.678;6.074;2023-08-07T12:03:52;19.10;99.90
17619;DHT22;8928;51.678;6.074;2023-08-07T12:06:52;19.60;99.90
17619;DHT22;8928;51.678;6.074;2023-08-07T12:09:39;20.20;99.90
17619;DHT22;8928;51.678;6.074;2023-08-07T12:12:27;20.40;99.90
17619;DHT22;8928;51.678;6.074;2023-08-07T12:15:16;20.60;99.90
17619;DHT22;8928;51.678;6.074;2023-08-07T12:18:07;20.50;99.90
17619;DHT22;8928;51.678;6.074;2023-08-07T12:20:57;20.50;99.90
17619;DHT22;8928;51.678;6.074;2023-08-07T12:23:45;19.70;99.90
17619;DHT22;8928;51.678;6.074;2023-08-07T12:26:33;20.10;99.90
17619;DHT22;8928;51.678;6.074;2023-08-07T12:29:20;20.50;99.90
17619;DHT22;8928;51.678;6.074;2023-08-07T12:32:09;20.80;99.90
17619;DHT22;8928;51.678;6.074;2023-08-07T12:34:57;20.50;99.90
17619;DHT22;8928;51.678;6.074;2023-08-07T12:37:44;20.20;99.90
17619;DHT22;8928;51.678;6.074;2023-08-07T12:40:32;19.90;32.00
17619;DHT22;8928;51.678;6.074;2023-08-07T12:43:21;19.30;1.00
17619;DHT22;8928;51.678;6.074;2023-08-07T12:46:08;19.50;99.90
17619;DHT22;8928;51.678;6.074;2023-08-07T12:48:55;20.20;99.90
17619;DHT22;8928;51.678;6.074;2023-08-07T12:51:44;20.70;14.20
17619;DHT22;8928;51.678;6.074;2023-08-07T12:54:31;20.30;1.00
17619;DHT22;8928;51.678;6.074;2023-08-07T12:57:18;19.80;99.90
17619;DHT22;8928;51.678;6.074;2023-08-07T13:00:06;19.70;46.90
17619;DHT22;8928;51.678;6.074;2023-08-07T13:02:54;19.50;99.90
17619;DHT22;8928;51.678;6.074;2023-08-07T13:05:41;20.10;99.90
17619;DHT22;8928;51.678;6.074;2023-08-07T13:08:30;21.50;45.00
17619;DHT22;8928;51.678;6.074;2023-08-07T13:11:19;22.10;99.90
17619;DHT22;8928;51.678;6.074;2023-08-07T13:14:06;22.70;99.90
17619;DHT22;8928;51.678;6.074;2023-08-07T13:16:53;22.80;99.90
17619;DHT22;8928;51.678;6.074;2023-08-07T13:19:40;23.20;99.90
17619;DHT22;8928;51.678;6.074;2023-08-07T13:22:27;23.80;99.90
17619;DHT22;8928;51.678;6.074;2023-08-07T13:25:15;24.20;99.90
17619;DHT22;8928;51.678;6.074;2023-08-07T13:28:03;25.10;99.90
17619;DHT22;8928;51.678;6.074;2023-08-07T13:30:52;24.90;99.90
17619;DHT22;8928;51.678;6.074;2023-08-07T13:33:41;24.50;99.90
17619;DHT22;8928;51.678;6.074;2023-08-07T13:36:28;24.00;99.90
17619;DHT22;8928;51.678;6.074;2023-08-07T13:39:15;24.20;99.90
17619;DHT22;8928;51.678;6.074;2023-08-07T13:42:04;24.60;99.90
17619;DHT22;8928;51.678;6.074;2023-08-07T13:44:51;23.90;99.90
17619;DHT22;8928;51.678;6.074;2023-08-07T13:47:38;23.90;99.90
17619;DHT22;8928;51.678;6.074;2023-08-07T13:50:26;24.00;99.90
17619;DHT22;8928;51.678;6.074;2023-08-07T13:53:13;24.90;99.90
17619;DHT22;8928;51.678;6.074;2023-08-07T13:56:00;25.10;99.90
17619;DHT22;8928;51.678;6.074;2023-08-07T13:58:48;24.90;99.90
17619;DHT22;8928;51.678;6.074;2023-08-07T14:01:36;24.20;99.90
17619;DHT22;8928;51.678;6.074;2023-08-07T14:04:23;22.30;99.90
17619;DHT22;8928;51.678;6.074;2023-08-07T14:07:10;21.20;99.90
17619;DHT22;8928;51.678;6.074;2023-08-07T14:09:57;20.10;99.90
17619;DHT22;8928;51.678;6.074;2023-08-07T14:12:44;19.70;99.90
17619;DHT22;8928;51.678;6.074;2023-08-07T14:15:33;20.00;99.90
17619;DHT22;8928;51.678;6.074;2023-08-07T14:18:21;20.70;99.90
17619;DHT22;8928;51.678;6.074;2023-08-07T14:21:08;20.30;99.90
17619;DHT22;8928;51.678;6.074;2023-08-07T14:23:55;20.20;99.90
17619;DHT22;8928;51.678;6.074;2023-08-07T14:26:42;20.00;99.90
17619;DHT22;8928;51.678;6.074;2023-08-07T14:29:29;19.90;99.90
17619;DHT22;8928;51.678;6.074;2023-08-07T14:32:17;19.70;99.90
17619;DHT22;8928;51.678;6.074;2023-08-07T14:35:05;19.60;99.90
17619;DHT22;8928;51.678;6.074;2023-08-07T14:37:52;19.80;99.90
17619;DHT22;8928;51.678;6.074;2023-08-07T14:40:39;19.70;99.90
17619;DHT22;8928;51.678;6.074;2023-08-07T14:43:29;19.40;99.90
17619;DHT22;8928;51.678;6.074;2023-08-07T14:46:16;19.80;99.90
17619;DHT22;8928;51.678;6.074;2023-08-07T14:49:05;21.30;99.90
17619;DHT22;8928;51.678;6.074;2023-08-07T14:51:52;21.80;99.90
17619;DHT22;8928;51.678;6.074;2023-08-07T14:54:40;21.60;99.90
17619;DHT22;8928;51.678;6.074;2023-08-07T14:57:27;22.50;99.90
17619;DHT22;8928;51.678;6.074;2023-08-07T15:00:15;22.20;99.90
17619;DHT22;8928;51.678;6.074;2023-08-07T15:03:04;22.20;99.90
17619;DHT22;8928;51.678;6.074;2023-08-07T15:05:52;22.00;99.90
17619;DHT22;8928;51.678;6.074;2023-08-07T15:08:39;22.30;99.90
17619;DHT22;8928;51.678;6.074;2023-08-07T15:11:26;21.70;99.90
17619;DHT22;8928;51.678;6.074;2023-08-07T15:14:13;20.90;99.90
17619;DHT22;8928;51.678;6.074;2023-08-07T15:17:00;20.30;99.90
17619;DHT22;8928;51.678;6.074;2023-08-07T15:19:47;20.20;99.90
17619;DHT22;8928;51.678;6.074;2023-08-07T15:22:36;19.90;99.90
17619;DHT22;8928;51.678;6.074;2023-08-07T15:25:23;19.40;99.90
17619;DHT22;8928;51.678;6.074;2023-08-07T15:28:10;18.90;99.90
17619;DHT22;8928;51.678;6.074;2023-08-07T15:30:57;18.70;99.90
17619;DHT22;8928;51.678;6.074;2023-08-07T15:33:44;18.80;99.90
17619;DHT22;8928;51.678;6.074;2023-08-07T15:36:34;19.60;99.90
17619;DHT22;8928;51.678;6.074;2023-08-07T15:39:23;21.50;99.90
17619;DHT22;8928;51.678;6.074;2023-08-07T15:42:10;22.40;99.90
17619;DHT22;8928;51.678;6.074;2023-08-07T15:44:57;22.00;99.90
17619;DHT22;8928;51.678;6.074;2023-08-07T15:47:44;21.30;99.90
17619;DHT22;8928;51.678;6.074;2023-08-07T15:50:33;20.50;99.90
17619;DHT22;8928;51.678;6.074;2023-08-07T15:53:22;20.70;99.90
17619;DHT22;8928;51.678;6.074;2023-08-07T15:56:11;22.50;99.90
17619;DHT22;8928;51.678;6.074;2023-08-07T15:58:58;24.00;99.90
17619;DHT22;8928;51.678;6.074;2023-08-07T16:01:45;24.00;99.90
17619;DHT22;8928;51.678;6.074;2023-08-07T16:04:32;22.20;99.90
17619;DHT22;8928;51.678;6.074;2023-08-07T16:07:19;20.80;99.90
17619;DHT22;8928;51.678;6.074;2023-08-07T16:10:07;19.30;99.90
17619;DHT22;8928;51.678;6.074;2023-08-07T16:12:55;18.50;99.90
17619;DHT22;8928;51.678;6.074;2023-08-07T16:15:42;17.90;99.90
17619;DHT22;8928;51.678;6.074;2023-08-07T16:18:29;17.20;99.90
17619;DHT22;8928;51.678;6.074;2023-08-07T16:21:17;16.50;99.90
17619;DHT22;8928;51.678;6.074;2023-08-07T16:24:04;15.90;99.90
17619;DHT22;8928;51.678;6.074;2023-08-07T16:26:51;15.50;99.90
17619;DHT22;8928;51.678;6.074;2023-08-07T16:29:39;15.60;99.90
17619;DHT22;8928;51.678;6.074;2023-08-07T16:32:27;15.70;99.90
17619;DHT22;8928;51.678;6.074;2023-08-07T16:35:14;16.20;99.90
17619;DHT22;8928;51.678;6.074;2023-08-07T16:38:02;16.90;99.90
17619;DHT22;8928;51.678;6.074;2023-08-07T16:40:49;18.90;99.90
17619;DHT22;8928;51.678;6.074;2023-08-07T16:43:36;19.80;99.90
17619;DHT22;8928;51.678;6.074;2023-08-07T16:46:24;18.90;99.90
17619;DHT22;8928;51.678;6.074;2023-08-07T16:49:11;18.10;99.90
17619;DHT22;8928;51.678;6.074;2023-08-07T16:51:58;18.80;99.90
17619;DHT22;8928;51.678;6.074;2023-08-07T16:54:46;20.50;99.90
17619;DHT22;8928;51.678;6.074;2023-08-07T16:57:35;21.40;99.90
17619;DHT22;8928;51.678;6.074;2023-08-07T17:00:22;21.90;99.90
17619;DHT22;8928;51.678;6.074;2023-08-07T17:03:10;22.70;99.90
17619;DHT22;8928;51.678;6.074;2023-08-07T17:06:00;22.50;99.90
17619;DHT22;8928;51.678;6.074;2023-08-07T17:08:47;23.00;99.90
17619;DHT22;8928;51.678;6.074;2023-08-07T17:11:37;23.40;99.90
17619;DHT22;8928;51.678;6.074;2023-08-07T17:14:24;23.60;99.90
17619;DHT22;8928;51.678;6.074;2023-08-07T17:17:11;23.50;99.90
17619;DHT22;8928;51.678;6.074;2023-08-07T17:20:00;23.90;99.90
17619;DHT22;8928;51.678;6.074;2023-08-07T17:22:47;24.40;99.90
17619;DHT22;8928;51.678;6.074;2023-08-07T17:25:34;24.40;99.90
17619;DHT22;8928;51.678;6.074;2023-08-07T17:28:21;24.20;99.90
17619;DHT22;8928;51.678;6.074;2023-08-07T17:31:08;24.50;99.90
17619;DHT22;8928;51.678;6.074;2023-08-07T17:33:55;24.10;99.90
17619;DHT22;8928;51.678;6.074;2023-08-07T17:36:44;24.00;99.90
17619;DHT22;8928;51.678;6.074;2023-08-07T17:39:31;22.50;99.90
17619;DHT22;8928;51.678;6.074;2023-08-07T17:42:18;20.70;99.90
17619;DHT22;8928;51.678;6.074;2023-08-07T17:45:06;19.40;99.90
17619;DHT22;8928;51.678;6.074;2023-08-07T17:47:53;18.80;99.90
17619;DHT22;8928;51.678;6.074;2023-08-07T17:50:40;18.50;99.90
17619;DHT22;8928;51.678;6.074;2023-08-07T17:53:28;18.60;99.90
17619;DHT22;8928;51.678;6.074;2023-08-07T17:56:15;18.70;99.90
17619;DHT22;8928;51.678;6.074;2023-08-07T17:59:02;18.80;99.90